Time;durP1;ratioP1;P1;durP2;ratioP2;P2;SDS_P1;SDS_P2;PMS_P1;PMS_P2;Temp;Humidity;BMP_temperature;BMP_pressure;BME280_temperature;BME280_humidity;BME280_pressure;Samples;Min_cycle;Max_cycle;Signal;HPM_P1;HPM_P2
2023/09/27 00:01:50;;;;;;;3.20;2.30;;;14.50;99.90;;;;;;5093380;28;20158;-75
2023/09/27 00:04:16;;;;;;;3.13;2.70;;;14.40;99.90;;;;;;5093257;28;20162;-75
2023/09/27 00:06:41;;;;;;;3.97;2.70;;;14.40;99.90;;;;;;5093188;28;20208;-75
2023/09/27 00:09:08;;;;;;;3.30;2.80;;;14.30;99.90;;;;;;5093212;28;20214;-75
2023/09/27 00:11:34;;;;;;;2.60;2.20;;;14.20;99.90;;;;;;5093028;28;20206;-75
2023/09/27 00:14:00;;;;;;;3.20;2.57;;;14.20;99.90;;;;;;5093031;28;20554;-76
2023/09/27 00:16:26;;;;;;;2.73;2.37;;;14.20;99.90;;;;;;5092810;28;20514;-76
2023/09/27 00:18:51;;;;;;;4.70;2.80;;;14.20;99.90;;;;;;5093133;28;20170;-75
2023/09/27 00:21:17;;;;;;;3.90;2.43;;;14.20;99.90;;;;;;5092966;28;20705;-75
2023/09/27 00:23:42;;;;;;;3.00;2.80;;;14.20;99.90;;;;;;5093009;28;20219;-74
2023/09/27 00:26:08;;;;;;;2.90;2.43;;;14.20;99.90;;;;;;5074459;28;20193;-75
2023/09/27 00:28:34;;;;;;;2.53;2.23;;;14.20;99.90;;;;;;5093335;28;20170;-75
2023/09/27 00:30:59;;;;;;;3.23;2.93;;;14.10;99.90;;;;;;5092852;28;20188;-75
2023/09/27 00:33:25;;;;;;;5.40;2.70;;;14.10;99.90;;;;;;5074294;28;20228;-75
2023/09/27 00:35:50;;;;;;;7.17;2.67;;;14.10;99.90;;;;;;5092419;28;20185;-75
2023/09/27 00:38:16;;;;;;;3.33;3.07;;;14.00;99.90;;;;;;5092738;28;20222;-75
2023/09/27 00:40:48;;;;;;;3.70;2.77;;;14.00;99.90;;;;;;5092429;28;20166;-76
2023/09/27 00:43:27;;;;;;;3.83;3.07;;;14.00;99.90;;;;;;5092644;28;20172;-75
2023/09/27 00:45:57;;;;;;;3.77;2.73;;;13.90;99.90;;;;;;5092203;28;20423;-75
2023/09/27 00:48:23;;;;;;;4.33;3.20;;;13.90;99.90;;;;;;5074465;28;20424;-75
2023/09/27 00:50:50;;;;;;;2.93;2.23;;;13.90;99.90;;;;;;5074245;28;20412;-75
2023/09/27 00:53:15;;;;;;;3.67;3.00;;;13.80;99.90;;;;;;5092396;28;20496;-74
2023/09/27 00:55:41;;;;;;;2.27;2.13;;;13.80;99.90;;;;;;5092039;28;20942;-75
2023/09/27 00:58:06;;;;;;;3.10;2.57;;;13.80;99.90;;;;;;5092371;28;20162;-75
2023/09/27 01:00:33;;;;;;;3.00;2.70;;;13.80;99.90;;;;;;5092291;28;20244;-75
2023/09/27 01:02:58;;;;;;;3.03;2.70;;;13.80;99.90;;;;;;5092123;28;20177;-75
2023/09/27 01:05:24;;;;;;;3.73;2.80;;;13.80;99.90;;;;;;5073785;28;20431;-75
2023/09/27 01:07:50;;;;;;;4.73;2.80;;;13.80;99.90;;;;;;5092268;28;20170;-75
2023/09/27 01:10:15;;;;;;;3.87;3.30;;;13.80;99.90;;;;;;5092211;28;20222;-74
2023/09/27 01:12:41;;;;;;;7.17;3.40;;;13.70;99.90;;;;;;5092039;28;20215;-74
2023/09/27 01:15:07;;;;;;;3.37;2.73;;;13.60;99.90;;;;;;5092088;28;20217;-75
2023/09/27 01:17:33;;;;;;;2.57;2.37;;;13.60;99.90;;;;;;5091979;28;20162;-75
2023/09/27 01:19:58;;;;;;;3.37;2.80;;;13.50;99.90;;;;;;5074053;28;20415;-75
2023/09/27 01:22:24;;;;;;;2.23;2.03;;;13.50;99.90;;;;;;5092093;28;20683;-75
2023/09/27 01:24:51;;;;;;;2.40;2.20;;;13.60;99.90;;;;;;5091828;28;20272;-74
2023/09/27 01:27:18;;;;;;;5.77;2.37;;;13.60;99.90;;;;;;5091811;28;20193;-75
2023/09/27 01:29:43;;;;;;;2.70;2.47;;;13.60;99.90;;;;;;5091983;28;20415;-74
2023/09/27 01:32:09;;;;;;;3.23;2.97;;;13.60;99.90;;;;;;5091864;28;20515;-75
2023/09/27 01:34:34;;;;;;;3.63;2.80;;;13.50;99.90;;;;;;5073472;28;20190;-74
2023/09/27 01:37:00;;;;;;;2.70;2.40;;;13.60;99.90;;;;;;5091852;28;20165;-75
2023/09/27 01:39:26;;;;;;;9.77;3.07;;;13.60;99.90;;;;;;5091863;28;20166;-73
2023/09/27 01:41:52;;;;;;;2.43;2.23;;;13.50;99.90;;;;;;5091782;28;20318;-74
2023/09/27 01:44:18;;;;;;;3.80;2.60;;;13.50;99.90;;;;;;5091677;28;20905;-75
2023/09/27 01:46:43;;;;;;;2.47;2.27;;;13.50;99.90;;;;;;5091604;28;20242;-74
2023/09/27 01:49:09;;;;;;;2.70;2.50;;;13.40;99.90;;;;;;5091813;28;20484;-75
2023/09/27 01:51:35;;;;;;;5.07;2.63;;;13.50;99.90;;;;;;5093781;28;20576;-76
2023/09/27 01:54:02;;;;;;;3.40;2.93;;;13.40;99.90;;;;;;5077446;28;20236;-75
2023/09/27 01:56:27;;;;;;;4.47;2.93;;;13.40;99.90;;;;;;5077235;28;20484;-75
2023/09/27 01:58:53;;;;;;;3.13;2.83;;;13.40;99.90;;;;;;5095824;28;20411;-75
2023/09/27 02:01:18;;;;;;;3.90;2.70;;;13.40;99.90;;;;;;5095875;28;20243;-75
2023/09/27 02:03:44;;;;;;;2.50;2.30;;;13.30;99.90;;;;;;5095682;28;20180;-74
2023/09/27 02:06:10;;;;;;;2.30;2.10;;;13.30;99.90;;;;;;5077105;28;20201;-74
2023/09/27 02:08:35;;;;;;;3.33;2.83;;;13.20;99.90;;;;;;5095645;28;20178;-74
2023/09/27 02:11:01;;;;;;;3.07;2.83;;;13.20;99.90;;;;;;5095523;28;20218;-74
2023/09/27 02:13:26;;;;;;;2.70;2.40;;;13.20;99.90;;;;;;5077019;28;20204;-75
2023/09/27 02:15:54;;;;;;;4.23;2.60;;;13.20;99.90;;;;;;5077059;28;20201;-75
2023/09/27 02:18:20;;;;;;;2.70;2.50;;;13.20;99.90;;;;;;5095471;28;20166;-75
2023/09/27 02:20:45;;;;;;;2.77;2.57;;;13.10;99.90;;;;;;5095321;28;20962;-75
2023/09/27 02:23:11;;;;;;;7.87;3.77;;;13.10;99.90;;;;;;5095346;28;20174;-75
2023/09/27 02:25:36;;;;;;;3.00;2.70;;;13.00;99.90;;;;;;5094795;28;20200;-74
2023/09/27 02:28:03;;;;;;;4.00;2.60;;;13.00;99.90;;;;;;5095169;28;20172;-74
2023/09/27 02:30:28;;;;;;;3.60;2.83;;;13.00;99.90;;;;;;5076863;28;20407;-74
2023/09/27 02:32:54;;;;;;;3.70;3.40;;;13.00;99.90;;;;;;5076880;28;20209;-74
2023/09/27 02:35:21;;;;;;;2.77;2.30;;;13.00;99.90;;;;;;5095048;28;20664;-75
2023/09/27 02:37:46;;;;;;;2.87;2.53;;;13.00;99.90;;;;;;5076678;28;20176;-75
2023/09/27 02:40:12;;;;;;;4.77;2.70;;;13.00;99.90;;;;;;5095001;28;20412;-75
2023/09/27 02:42:40;;;;;;;2.80;2.43;;;12.90;99.90;;;;;;5095354;28;20585;-75
2023/09/27 02:45:07;;;;;;;2.80;2.60;;;12.80;99.90;;;;;;5076551;28;20580;-75
2023/09/27 02:47:33;;;;;;;2.87;2.60;;;12.80;99.90;;;;;;5094735;28;20403;-75
2023/09/27 02:49:58;;;;;;;4.30;3.13;;;12.70;99.90;;;;;;5094745;28;20901;-77
2023/09/27 02:52:24;;;;;;;5.10;3.60;;;12.80;99.90;;;;;;5094743;28;20197;-75
2023/09/27 02:54:50;;;;;;;5.20;3.70;;;12.80;99.90;;;;;;5094484;28;20205;-75
2023/09/27 02:57:16;;;;;;;5.10;3.80;;;12.80;99.90;;;;;;5094584;28;20193;-75
2023/09/27 02:59:41;;;;;;;3.17;2.87;;;12.80;99.90;;;;;;5094663;28;20431;-75
2023/09/27 03:02:07;;;;;;;3.57;3.27;;;12.80;99.90;;;;;;5094529;28;20174;-75
2023/09/27 03:04:32;;;;;;;11.77;7.83;;;12.70;99.90;;;;;;5094716;28;20204;-75
2023/09/27 03:06:59;;;;;;;12.90;9.10;;;12.70;99.90;;;;;;5094338;28;20192;-75
2023/09/27 03:09:24;;;;;;;11.03;8.90;;;12.60;99.90;;;;;;5076355;28;20640;-75
2023/09/27 03:11:50;;;;;;;11.13;8.70;;;12.70;99.90;;;;;;5094458;28;20418;-75
2023/09/27 03:14:16;;;;;;;6.87;4.63;;;12.70;99.90;;;;;;5094463;28;20176;-75
2023/09/27 03:16:42;;;;;;;4.93;3.53;;;12.60;99.90;;;;;;5094319;28;20161;-74
2023/09/27 03:19:08;;;;;;;4.27;2.97;;;12.70;99.90;;;;;;5094398;28;20158;-75
2023/09/27 03:21:34;;;;;;;4.60;3.10;;;12.70;99.90;;;;;;5094352;28;20410;-75
2023/09/27 03:23:59;;;;;;;7.30;3.50;;;12.70;99.90;;;;;;5075897;28;20407;-75
2023/09/27 03:26:25;;;;;;;3.70;3.37;;;12.70;99.90;;;;;;5094008;28;20185;-75
2023/09/27 03:28:51;;;;;;;6.90;2.67;;;12.70;99.90;;;;;;5094188;28;20173;-75
2023/09/27 03:31:17;;;;;;;3.80;3.40;;;12.70;99.90;;;;;;5075960;28;20181;-75
2023/09/27 03:33:44;;;;;;;4.03;3.73;;;12.60;99.90;;;;;;5093954;28;20451;-75
2023/09/27 03:36:09;;;;;;;8.10;2.70;;;12.50;99.90;;;;;;5093612;28;20434;-75
2023/09/27 03:38:36;;;;;;;3.67;3.30;;;12.50;99.90;;;;;;5093937;28;20416;-75
2023/09/27 03:41:02;;;;;;;3.83;3.37;;;12.40;99.90;;;;;;5075919;28;20256;-75
2023/09/27 03:43:27;;;;;;;3.47;3.17;;;12.40;99.90;;;;;;5093704;28;20493;-75
2023/09/27 03:45:53;;;;;;;4.13;3.70;;;12.50;99.90;;;;;;5093464;28;20200;-74
2023/09/27 03:48:19;;;;;;;4.60;4.20;;;12.40;99.90;;;;;;5075606;28;20181;-74
2023/09/27 03:50:45;;;;;;;4.50;3.83;;;12.40;99.90;;;;;;5093772;28;20217;-74
2023/09/27 03:53:11;;;;;;;4.33;3.90;;;12.40;99.90;;;;;;5093277;28;20470;-74
2023/09/27 03:55:36;;;;;;;4.60;3.87;;;12.40;99.90;;;;;;5093288;28;20190;-75
2023/09/27 03:58:02;;;;;;;6.20;4.00;;;12.40;99.90;;;;;;5075343;28;20177;-75
2023/09/27 04:00:28;;;;;;;4.30;3.80;;;12.40;99.90;;;;;;5093533;28;20248;-75
2023/09/27 04:02:54;;;;;;;4.10;3.70;;;12.50;99.90;;;;;;5075271;28;20988;-75
2023/09/27 04:05:22;;;;;;;4.87;3.57;;;12.50;99.90;;;;;;5093127;28;20193;-75
2023/09/27 04:07:48;;;;;;;8.70;4.67;;;12.50;99.90;;;;;;5093103;28;20168;-74
2023/09/27 04:10:15;;;;;;;6.13;3.90;;;12.50;99.90;;;;;;5093266;28;20494;-74
2023/09/27 04:12:41;;;;;;;4.90;4.50;;;12.50;99.90;;;;;;5093130;28;20190;-74
2023/09/27 04:15:08;;;;;;;6.27;5.10;;;12.50;99.90;;;;;;5092685;28;20480;-74
2023/09/27 04:17:35;;;;;;;5.47;4.83;;;12.60;99.90;;;;;;5074822;28;20273;-74
2023/09/27 04:20:00;;;;;;;5.07;4.27;;;12.60;99.90;;;;;;5092967;28;20391;-74
2023/09/27 04:22:26;;;;;;;9.80;5.60;;;12.50;99.90;;;;;;5074835;28;20821;-74
2023/09/27 04:24:52;;;;;;;12.67;8.60;;;12.50;99.90;;;;;;5092917;28;20382;-75
2023/09/27 04:27:18;;;;;;;20.97;12.90;;;12.50;99.90;;;;;;5092862;28;20771;-75
2023/09/27 04:29:44;;;;;;;9.13;7.90;;;12.50;99.90;;;;;;5092979;28;20281;-76
2023/09/27 04:32:09;;;;;;;8.93;6.37;;;12.50;99.90;;;;;;5092674;28;20447;-74
2023/09/27 04:34:35;;;;;;;7.27;5.57;;;12.50;99.90;;;;;;5092683;28;20268;-74
2023/09/27 04:37:00;;;;;;;5.13;4.70;;;12.50;99.90;;;;;;5092561;28;20241;-74
2023/09/27 04:39:30;;;;;;;4.97;4.30;;;12.50;99.90;;;;;;5092810;28;20599;-74
2023/09/27 04:41:56;;;;;;;4.40;3.00;;;12.50;99.90;;;;;;5092883;28;20157;-75
2023/09/27 04:44:22;;;;;;;6.80;2.90;;;12.30;99.90;;;;;;5092566;28;20426;-75
2023/09/27 04:46:47;;;;;;;4.33;3.70;;;12.30;99.90;;;;;;5092398;28;20205;-75
2023/09/27 04:49:13;;;;;;;5.73;3.20;;;12.30;99.90;;;;;;5092448;28;20153;-74
2023/09/27 04:51:38;;;;;;;4.60;3.70;;;12.30;99.90;;;;;;5092548;28;20651;-75
2023/09/27 04:54:04;;;;;;;4.40;3.40;;;12.30;99.90;;;;;;5074074;28;20201;-75
2023/09/27 04:56:30;;;;;;;7.67;5.50;;;12.30;99.90;;;;;;5092282;28;20232;-75
2023/09/27 04:59:04;;;;;;;4.87;4.37;;;12.20;99.90;;;;;;5092469;28;20292;-75
2023/09/27 05:01:30;;;;;;;4.60;4.20;;;12.10;99.90;;;;;;5092473;28;20419;-75
2023/09/27 05:03:56;;;;;;;5.43;4.80;;;12.20;99.90;;;;;;5092298;28;20412;-75
2023/09/27 05:06:22;;;;;;;7.10;4.70;;;12.10;99.90;;;;;;5092103;28;20416;-75
2023/09/27 05:08:49;;;;;;;6.00;4.47;;;12.10;99.90;;;;;;5092291;28;20766;-75
2023/09/27 05:11:15;;;;;;;6.10;4.90;;;12.10;99.90;;;;;;5092265;28;20172;-74
2023/09/27 05:13:41;;;;;;;5.47;4.93;;;12.20;99.90;;;;;;5092124;28;20543;-74
2023/09/27 05:16:07;;;;;;;6.70;4.87;;;12.20;99.90;;;;;;5091880;28;20503;-74
2023/09/27 05:18:32;;;;;;;4.93;4.20;;;12.20;99.90;;;;;;5092005;28;20262;-75
2023/09/27 05:21:04;;;;;;;7.07;5.30;;;12.20;99.90;;;;;;5092226;28;20168;-75
2023/09/27 05:23:30;;;;;;;6.10;4.90;;;12.20;99.90;;;;;;5092143;28;20226;-74
2023/09/27 05:25:55;;;;;;;8.37;6.20;;;12.20;99.90;;;;;;5090894;28;20770;-74
2023/09/27 05:28:21;;;;;;;8.37;5.90;;;12.30;99.90;;;;;;5092017;28;20165;-75
2023/09/27 05:30:46;;;;;;;9.83;6.80;;;12.30;99.90;;;;;;5092017;28;20182;-75
2023/09/27 05:33:12;;;;;;;10.30;7.70;;;12.30;99.90;;;;;;5091644;28;20193;-75
2023/09/27 05:35:38;;;;;;;12.33;7.87;;;12.20;99.90;;;;;;5091929;28;20560;-75
2023/09/27 05:38:03;;;;;;;8.60;7.20;;;12.20;99.90;;;;;;5073901;28;20185;-75
2023/09/27 05:40:29;;;;;;;7.97;7.17;;;12.20;99.90;;;;;;5091803;28;20415;-73
2023/09/27 05:42:55;;;;;;;10.90;7.53;;;12.30;99.90;;;;;;5091950;28;20173;-73
2023/09/27 05:45:21;;;;;;;9.97;6.77;;;12.40;99.90;;;;;;5091714;28;20354;-73
2023/09/27 05:47:46;;;;;;;6.47;4.90;;;12.50;99.90;;;;;;5091429;28;20925;-74
2023/09/27 05:50:12;;;;;;;6.63;5.53;;;12.60;99.90;;;;;;5091786;28;20201;-74
2023/09/27 05:52:39;;;;;;;5.70;4.97;;;12.70;99.90;;;;;;5091780;28;20193;-73
2023/09/27 05:55:05;;;;;;;6.17;5.00;;;12.80;99.90;;;;;;5091539;28;20201;-73
2023/09/27 05:57:32;;;;;;;7.87;6.60;;;13.00;99.90;;;;;;5091645;28;20403;-74
2023/09/27 05:59:58;;;;;;;6.73;6.13;;;13.10;99.90;;;;;;5091782;28;20395;-74
2023/09/27 06:02:31;;;;;;;8.60;6.47;;;13.20;99.90;;;;;;5091591;28;20918;-75
2023/09/27 06:04:57;;;;;;;11.13;6.33;;;13.30;99.90;;;;;;5073427;28;20427;-74
2023/09/27 06:07:23;;;;;;;9.07;7.47;;;13.50;99.90;;;;;;5073385;28;20506;-75
2023/09/27 06:09:49;;;;;;;12.57;7.57;;;13.60;99.90;;;;;;5091661;28;20552;-75
2023/09/27 06:12:15;;;;;;;8.67;7.17;;;13.60;99.90;;;;;;5091514;28;20281;-74
2023/09/27 06:14:43;;;;;;;6.27;5.67;;;13.70;99.90;;;;;;5091515;28;20189;-74
2023/09/27 06:17:10;;;;;;;9.30;6.97;;;13.80;99.90;;;;;;5091521;28;20460;-75
2023/09/27 06:19:36;;;;;;;7.70;6.90;;;14.00;99.90;;;;;;5091560;28;20431;-74
2023/09/27 06:22:04;;;;;;;15.23;8.43;;;14.20;99.90;;;;;;5091519;28;20431;-73
2023/09/27 06:24:30;;;;;;;9.43;7.10;;;14.20;99.90;;;;;;5073257;28;20461;-73
2023/09/27 06:26:56;;;;;;;7.57;6.87;;;14.30;99.90;;;;;;5091285;28;20836;-74
2023/09/27 06:29:22;;;;;;;6.77;5.87;;;14.50;99.90;;;;;;5091388;28;20422;-75
2023/09/27 06:31:50;;;;;;;6.83;6.20;;;14.60;99.90;;;;;;5073303;28;20173;-73
2023/09/27 06:34:17;;;;;;;15.13;5.73;;;14.70;99.90;;;;;;5091173;28;20169;-73
2023/09/27 06:36:42;;;;;;;7.80;6.63;;;14.80;99.90;;;;;;5073552;28;20561;-74
2023/09/27 06:39:15;;;;;;;9.70;7.23;;;14.80;99.90;;;;;;5095148;28;20944;-73
2023/09/27 06:41:41;;;;;;;10.40;7.50;;;14.90;99.90;;;;;;5095007;28;20248;-74
2023/09/27 06:44:07;;;;;;;8.20;7.40;;;14.90;99.90;;;;;;5094833;28;20404;-75
2023/09/27 06:46:36;;;;;;;6.73;6.03;;;15.00;99.90;;;;;;5094735;28;20407;-75
2023/09/27 06:49:03;;;;;;;7.30;6.40;;;15.10;99.90;;;;;;5094869;28;20408;-75
2023/09/27 06:51:29;;;;;;;7.43;6.30;;;15.20;99.90;;;;;;5094709;28;20431;-73
2023/09/27 06:53:55;;;;;;;8.50;7.60;;;15.20;99.90;;;;;;5076405;28;20557;-75
2023/09/27 06:56:20;;;;;;;7.83;7.03;;;15.30;99.90;;;;;;5094379;28;20538;-75
2023/09/27 06:58:46;;;;;;;11.33;6.70;;;15.30;99.90;;;;;;5094726;28;20188;-75
2023/09/27 07:01:13;;;;;;;9.17;6.83;;;15.40;99.90;;;;;;5094633;28;20207;-75
2023/09/27 07:03:40;;;;;;;7.33;6.50;;;15.40;99.90;;;;;;5094706;28;20165;-75
2023/09/27 07:06:05;;;;;;;8.50;7.63;;;15.40;99.90;;;;;;5094361;28;20885;-75
2023/09/27 07:08:31;;;;;;;8.60;7.10;;;15.40;99.90;;;;;;5094488;28;20482;-74
2023/09/27 07:11:04;;;;;;;12.60;8.27;;;15.40;99.90;;;;;;5094516;28;20619;-74
2023/09/27 07:13:30;;;;;;;9.47;8.43;;;15.60;99.90;;;;;;5094267;28;20194;-73
2023/09/27 07:15:56;;;;;;;10.63;8.70;;;15.80;99.90;;;;;;5094058;28;20789;-72
2023/09/27 07:18:22;;;;;;;8.90;7.40;;;16.00;99.90;;;;;;5076348;28;20529;-72
2023/09/27 07:20:50;;;;;;;7.47;6.77;;;16.20;99.90;;;;;;5076112;28;20636;-74
2023/09/27 07:23:15;;;;;;;9.87;8.47;;;16.50;99.90;;;;;;5094465;28;20440;-75
2023/09/27 07:25:44;;;;;;;9.40;8.13;;;16.70;99.90;;;;;;5075853;28;20738;-72
2023/09/27 07:28:11;;;;;;;8.87;6.47;;;16.80;99.90;;;;;;5094067;28;20184;-73
2023/09/27 07:30:37;;;;;;;10.13;7.80;;;17.00;99.90;;;;;;5094030;28;20987;-72
2023/09/27 07:33:10;;;;;;;9.50;8.50;;;17.20;99.90;;;;;;5094098;28;20466;-74
2023/09/27 07:35:41;;;;;;;10.10;8.20;;;17.40;99.90;;;;;;5093713;28;20423;-74
2023/09/27 07:38:08;;;;;;;7.90;6.80;;;17.40;99.90;;;;;;5075805;28;20438;-73
2023/09/27 07:40:33;;;;;;;7.90;6.33;;;17.40;99.90;;;;;;5094448;28;20928;-75
2023/09/27 07:42:59;;;;;;;7.13;6.43;;;17.70;99.90;;;;;;5075785;28;20411;-73
2023/09/27 07:45:31;;;;;;;8.07;7.27;;;17.90;99.90;;;;;;5093674;28;20189;-73
2023/09/27 07:47:57;;;;;;;8.57;7.40;;;18.00;99.90;;;;;;5093111;28;20161;-73
2023/09/27 07:50:27;;;;;;;8.27;7.20;;;18.00;99.90;;;;;;5072807;28;20923;-72
2023/09/27 07:52:59;;;;;;;6.80;6.20;;;18.00;99.90;;;;;;5056338;28;20202;-74
2023/09/27 07:55:25;;;;;;;7.43;6.53;;;18.10;99.90;;;;;;5055246;28;20451;-75
2023/09/27 07:57:52;;;;;;;12.90;6.80;;;18.10;99.90;;;;;;5073813;28;20401;-74
2023/09/27 08:00:25;;;;;;;8.40;7.33;;;18.20;99.90;;;;;;5072946;28;20401;-74
2023/09/27 08:02:51;;;;;;;9.00;7.67;;;18.10;99.90;;;;;;5073156;28;20432;-75
2023/09/27 08:05:16;;;;;;;8.80;7.07;;;18.20;99.90;;;;;;5072916;28;20470;-74
2023/09/27 08:07:44;;;;;;;8.90;7.50;;;18.50;99.90;;;;;;5072959;28;20633;-75
2023/09/27 08:10:10;;;;;;;9.00;7.77;;;18.90;99.90;;;;;;5073002;28;20169;-76
2023/09/27 08:12:38;;;;;;;14.60;8.30;;;19.40;99.90;;;;;;5072800;28;20447;-76
2023/09/27 08:15:05;;;;;;;7.30;6.60;;;19.90;99.90;;;;;;5072733;28;20432;-75
2023/09/27 08:17:32;;;;;;;12.80;7.03;;;20.10;99.90;;;;;;5072627;28;20475;-74
2023/09/27 08:19:58;;;;;;;8.33;7.50;;;20.30;99.90;;;;;;5072730;28;20773;-75
2023/09/27 08:22:23;;;;;;;9.43;8.30;;;20.70;99.90;;;;;;5054630;28;20416;-75
2023/09/27 08:24:49;;;;;;;7.63;6.93;;;21.10;99.90;;;;;;5072242;28;20416;-76
2023/09/27 08:27:16;;;;;;;7.93;7.17;;;22.10;99.90;;;;;;5074630;28;20236;-76
2023/09/27 08:29:42;;;;;;;7.07;6.40;;;23.10;99.90;;;;;;5072437;28;20177;-76
2023/09/27 08:32:08;;;;;;;9.53;6.40;;;24.00;99.90;;;;;;5062777;28;20411;-77
2023/09/27 08:34:34;;;;;;;19.20;6.30;;;25.50;99.90;;;;;;5080170;28;20221;-77
2023/09/27 08:37:00;;;;;;;8.77;5.43;;;26.60;99.90;;;;;;5072364;28;20409;-77
2023/09/27 08:39:30;;;;;;;6.30;5.43;;;28.20;99.90;;;;;;5072233;28;20397;-77
2023/09/27 08:41:58;;;;;;;8.90;5.80;;;29.70;89.30;;;;;;5073062;28;20443;-77
2023/09/27 08:44:24;;;;;;;5.70;5.20;;;31.00;67.60;;;;;;5090976;28;20419;-77
2023/09/27 08:46:50;;;;;;;8.20;7.37;;;31.40;60.90;;;;;;5077952;28;20404;-77
2023/09/27 08:49:17;;;;;;;8.40;7.60;;;31.10;57.50;;;;;;5072533;28;20774;-77
2023/09/27 08:51:45;;;;;;;9.27;7.00;;;30.30;57.00;;;;;;5072115;28;20404;-77
2023/09/27 08:54:12;;;;;;;7.13;6.53;;;29.30;56.90;;;;;;5071637;28;20460;-76
2023/09/27 08:56:38;;;;;;;9.50;6.07;;;29.10;60.40;;;;;;5070759;28;20777;-77
2023/09/27 08:59:04;;;;;;;9.10;7.43;;;29.40;61.80;;;;;;5072178;28;20405;-75
2023/09/27 09:01:33;;;;;;;9.43;6.33;;;30.60;59.20;;;;;;5070598;28;20205;-76
2023/09/27 09:03:59;;;;;;;7.70;7.10;;;31.70;56.80;;;;;;5072159;28;20818;-76
2023/09/27 09:06:27;;;;;;;7.70;5.87;;;32.90;54.20;;;;;;5071904;28;20794;-76
2023/09/27 09:08:52;;;;;;;5.70;5.20;;;33.70;51.10;;;;;;5054269;28;20407;-76
2023/09/27 09:11:22;;;;;;;5.60;5.10;;;35.10;49.40;;;;;;5071996;28;20766;-77
2023/09/27 09:14:04;;;;;;;6.17;5.53;;;36.00;45.90;;;;;;5072060;28;20244;-76
2023/09/27 09:16:39;;;;;;;5.90;5.40;;;35.60;43.20;;;;;;5071881;28;20447;-77
2023/09/27 09:19:25;;;;;;;4.97;4.43;;;35.40;42.80;;;;;;5072041;28;20407;-77
2023/09/27 09:22:05;;;;;;;5.37;4.83;;;35.90;42.80;;;;;;5071881;28;20405;-77
2023/09/27 09:24:32;;;;;;;4.97;4.57;;;36.40;42.50;;;;;;5071848;28;20416;-77
2023/09/27 09:27:08;;;;;;;3.40;3.10;;;36.90;40.80;;;;;;5071719;28;20401;-76
2023/09/27 09:29:45;;;;;;;4.37;3.97;;;37.20;40.40;;;;;;5071769;28;20407;-76
2023/09/27 09:32:11;;;;;;;4.00;3.03;;;37.20;40.00;;;;;;5053722;28;20415;-76
2023/09/27 09:34:41;;;;;;;3.23;3.03;;;38.40;39.80;;;;;;5071697;28;20427;-73
2023/09/27 09:37:18;;;;;;;6.33;5.73;;;40.00;38.70;;;;;;5053669;28;20418;-73
2023/09/27 09:39:44;;;;;;;7.00;4.50;;;40.40;35.60;;;;;;5071787;28;20922;-77
2023/09/27 09:42:10;;;;;;;4.83;4.47;;;40.90;34.80;;;;;;5053561;28;20411;-77
2023/09/27 09:44:36;;;;;;;4.97;4.37;;;42.10;33.60;;;;;;5071529;28;20428;-77
2023/09/27 09:47:12;;;;;;;3.97;3.57;;;43.10;32.30;;;;;;5053819;28;20197;-77
2023/09/27 09:49:38;;;;;;;4.57;4.17;;;44.70;31.70;;;;;;5071562;28;20173;-77
2023/09/27 09:52:05;;;;;;;5.87;5.37;;;46.30;30.00;;;;;;5071388;28;20398;-76
2023/09/27 09:54:41;;;;;;;5.33;4.50;;;47.80;28.80;;;;;;5071158;28;20527;-76
2023/09/27 09:57:10;;;;;;;4.57;4.17;;;49.20;28.50;;;;;;5053337;28;20495;-76
2023/09/27 09:59:48;;;;;;;3.60;3.10;;;49.30;26.30;;;;;;5071733;28;20375;-76
2023/09/27 10:02:20;;;;;;;4.67;3.77;;;47.20;25.90;;;;;;5071686;28;20408;-75
2023/09/27 10:04:47;;;;;;;4.37;3.50;;;45.80;26.00;;;;;;5071637;28;20440;-75
2023/09/27 10:07:16;;;;;;;3.20;3.00;;;46.30;26.10;;;;;;5071287;28;20984;-76
2023/09/27 10:09:42;;;;;;;3.87;3.60;;;46.90;25.20;;;;;;5071435;28;20397;-76
2023/09/27 10:12:10;;;;;;;3.93;3.63;;;47.10;25.20;;;;;;5072253;28;20824;-76
2023/09/27 10:14:35;;;;;;;3.80;3.50;;;47.00;24.70;;;;;;5075071;28;20399;-76
2023/09/27 10:17:01;;;;;;;8.53;3.80;;;47.30;25.00;;;;;;5074965;28;20386;-75
2023/09/27 10:19:28;;;;;;;3.90;3.60;;;48.20;25.10;;;;;;5057270;28;20178;-76
2023/09/27 10:22:14;;;;;;;3.40;3.20;;;48.10;24.30;;;;;;5057210;28;20170;-76
2023/09/27 10:24:42;;;;;;;3.57;3.37;;;49.10;24.70;;;;;;5074858;28;20447;-76
2023/09/27 10:27:08;;;;;;;3.67;3.37;;;49.30;23.60;;;;;;5056903;28;20386;-76
2023/09/27 10:29:54;;;;;;;3.73;3.43;;;50.10;23.30;;;;;;5057063;28;20382;-76
2023/09/27 10:32:19;;;;;;;3.90;3.50;;;50.90;23.40;;;;;;5074839;28;20205;-77
2023/09/27 10:34:45;;;;;;;3.77;3.50;;;51.00;22.10;;;;;;5056877;28;20781;-76
2023/09/27 10:37:10;;;;;;;3.10;2.90;;;51.90;22.30;;;;;;5074554;28;20249;-76
2023/09/27 10:39:39;;;;;;;3.80;3.50;;;52.20;21.70;;;;;;5074666;28;20519;-76
2023/09/27 10:42:05;;;;;;;3.70;3.40;;;52.50;20.90;;;;;;5057396;28;20661;-77
2023/09/27 10:44:36;;;;;;;3.63;3.33;;;51.90;20.90;;;;;;5075182;28;20733;-75
2023/09/27 10:47:03;;;;;;;4.33;3.93;;;52.20;21.80;;;;;;5073933;28;20640;-76
2023/09/27 10:49:41;;;;;;;3.60;3.40;;;52.20;21.20;;;;;;5090028;28;20414;-76
2023/09/27 10:52:18;;;;;;;3.80;3.60;;;51.70;20.90;;;;;;5080850;28;20422;-76
2023/09/27 10:54:45;;;;;;;5.10;4.10;;;50.90;20.70;;;;;;5056364;28;20505;-76
2023/09/27 10:57:12;;;;;;;2.80;2.60;;;49.30;20.30;;;;;;5074297;28;20428;-76
2023/09/27 10:59:37;;;;;;;3.00;2.80;;;48.10;21.50;;;;;;5074372;28;20445;-76
2023/09/27 11:02:03;;;;;;;3.53;3.23;;;47.30;22.20;;;;;;5081381;28;20845;-76
2023/09/27 11:04:30;;;;;;;2.90;2.60;;;47.20;22.60;;;;;;5075298;28;20190;-76
2023/09/27 11:06:56;;;;;;;3.33;3.03;;;47.70;23.10;;;;;;5074235;28;20378;-76
2023/09/27 11:09:23;;;;;;;3.47;3.27;;;48.20;23.30;;;;;;5074277;28;20371;-76
2023/09/27 11:11:52;;;;;;;3.10;2.90;;;48.40;22.70;;;;;;5074074;28;20163;-76
2023/09/27 11:14:32;;;;;;;3.03;2.83;;;46.70;21.80;;;;;;5056207;28;20488;-76
2023/09/27 11:17:13;;;;;;;3.03;2.83;;;45.70;23.30;;;;;;5073736;28;20379;-76
2023/09/27 11:19:39;;;;;;;3.70;3.40;;;46.60;24.60;;;;;;5074061;28;20573;-76
2023/09/27 11:22:04;;;;;;;3.00;2.80;;;48.00;22.80;;;;;;5057847;28;20492;-76
2023/09/27 11:24:40;;;;;;;5.33;4.93;;;48.80;22.30;;;;;;5072007;28;20571;-76
2023/09/27 11:27:07;;;;;;;3.10;2.90;;;49.30;22.40;;;;;;5060827;28;20182;-76
2023/09/27 11:29:32;;;;;;;3.73;3.43;;;49.60;21.60;;;;;;5073856;28;20415;-76
2023/09/27 11:31:58;;;;;;;3.33;3.07;;;50.20;21.60;;;;;;5073746;28;20383;-76
2023/09/27 11:34:24;;;;;;;2.70;2.57;;;50.10;21.80;;;;;;5083168;28;20587;-76
2023/09/27 11:36:55;;;;;;;3.00;2.80;;;49.00;20.80;;;;;;5075758;28;20174;-76
2023/09/27 11:39:27;;;;;;;3.80;3.50;;;47.50;21.30;;;;;;5093147;28;20743;-76
2023/09/27 11:41:58;;;;;;;3.10;2.90;;;45.50;22.00;;;;;;5086883;28;20386;-76
2023/09/27 11:44:24;;;;;;;2.90;2.60;;;43.90;23.30;;;;;;5081828;28;20388;-76
2023/09/27 11:46:51;;;;;;;3.30;3.00;;;42.50;24.30;;;;;;5078034;28;20920;-76
2023/09/27 11:49:18;;;;;;;5.50;4.83;;;40.90;25.10;;;;;;5085079;28;20941;-76
2023/09/27 11:51:44;;;;;;;4.93;4.53;;;40.50;26.40;;;;;;5073428;28;20409;-74
2023/09/27 11:54:13;;;;;;;3.50;3.20;;;41.60;27.60;;;;;;5072942;28;20452;-75
2023/09/27 11:56:40;;;;;;;3.37;2.83;;;42.80;26.60;;;;;;5073200;28;20433;-75
2023/09/27 11:59:07;;;;;;;3.13;2.93;;;44.20;25.70;;;;;;5073335;28;20483;-76
2023/09/27 12:01:33;;;;;;;3.20;3.00;;;45.30;24.80;;;;;;5072874;28;20568;-76
2023/09/27 12:03:59;;;;;;;3.30;3.00;;;44.80;23.80;;;;;;5081426;28;20394;-76
2023/09/27 12:06:25;;;;;;;3.13;2.83;;;44.70;23.90;;;;;;5054856;28;20479;-76
2023/09/27 12:08:51;;;;;;;3.87;3.57;;;46.20;24.20;;;;;;5071803;28;20182;-76
2023/09/27 12:11:17;;;;;;;3.33;3.03;;;47.70;22.70;;;;;;5071935;28;20500;-76
2023/09/27 12:13:42;;;;;;;3.90;2.70;;;48.80;22.40;;;;;;5072967;28;20593;-76
2023/09/27 12:16:08;;;;;;;3.50;3.20;;;49.60;21.80;;;;;;5072738;28;20214;-76
2023/09/27 12:18:33;;;;;;;3.27;3.03;;;50.50;21.90;;;;;;5072996;28;20540;-75
2023/09/27 12:21:00;;;;;;;3.00;2.70;;;51.20;21.60;;;;;;5073034;28;20169;-76
2023/09/27 12:23:25;;;;;;;3.17;2.97;;;51.30;21.20;;;;;;5075863;28;20188;-76
2023/09/27 12:25:52;;;;;;;3.87;3.60;;;49.90;20.70;;;;;;5073734;28;20787;-76
2023/09/27 12:28:19;;;;;;;3.50;3.30;;;47.90;21.00;;;;;;5080809;28;20656;-75
2023/09/27 12:30:44;;;;;;;3.70;3.40;;;47.40;21.80;;;;;;5072703;28;20451;-76
2023/09/27 12:33:12;;;;;;;2.70;2.50;;;47.80;21.70;;;;;;5072744;28;20423;-75
2023/09/27 12:35:37;;;;;;;3.30;3.00;;;48.60;22.20;;;;;;5076711;28;20296;-76
2023/09/27 12:38:06;;;;;;;2.83;2.63;;;48.60;21.20;;;;;;5072923;28;20490;-75
2023/09/27 12:40:32;;;;;;;3.00;2.80;;;48.60;21.70;;;;;;5075034;28;20170;-75
2023/09/27 12:42:58;;;;;;;2.93;2.73;;;49.10;21.70;;;;;;5072242;28;20398;-76
2023/09/27 12:45:23;;;;;;;2.80;2.60;;;49.00;20.70;;;;;;5070774;28;20941;-75